Time;durP1;ratioP1;P1;durP2;ratioP2;P2;SDS_P1;SDS_P2;PMS_P1;PMS_P2;Temp;Humidity;BMP_temperature;BMP_pressure;BME280_temperature;BME280_humidity;BME280_pressure;Samples;Min_cycle;Max_cycle;Signal;HPM_P1;HPM_P2
2021/04/10 00:00:27;;;;;;;100.80;50.28;;;5.80;52.70;;;;;;5075029;28;20100;-73
2021/04/10 00:02:53;;;;;;;104.00;51.50;;;5.70;52.90;;;;;;5074779;28;20064;-73
2021/04/10 00:05:24;;;;;;;91.50;46.30;;;5.70;53.10;;;;;;5073627;28;20025;-73
2021/04/10 00:07:49;;;;;;;87.97;47.58;;;5.70;53.40;;;;;;5074663;28;20044;-73
2021/04/10 00:10:15;;;;;;;94.28;47.42;;;5.60;53.40;;;;;;5074729;28;20029;-73
2021/04/10 00:12:41;;;;;;;95.82;46.88;;;5.60;53.50;;;;;;5073345;28;20078;-74
2021/04/10 00:15:11;;;;;;;84.63;45.00;;;5.60;53.70;;;;;;5075068;28;20113;-74
2021/04/10 00:17:37;;;;;;;84.93;45.30;;;5.50;53.90;;;;;;5075420;28;20039;-74
2021/04/10 00:20:09;;;;;;;85.05;47.45;;;5.50;54.00;;;;;;5074876;28;20401;-74
2021/04/10 00:22:35;;;;;;;93.70;46.08;;;5.40;54.20;;;;;;5074613;28;20020;-73
2021/04/10 00:25:01;;;;;;;87.85;44.13;;;5.40;54.30;;;;;;5074018;28;20032;-73
2021/04/10 00:27:26;;;;;;;84.93;43.05;;;5.30;54.40;;;;;;5074466;28;20490;-75
2021/04/10 00:29:53;;;;;;;79.80;42.53;;;5.30;54.70;;;;;;5074741;28;20049;-75
2021/04/10 00:32:18;;;;;;;76.32;40.78;;;5.20;54.90;;;;;;5074356;28;20473;-74
2021/04/10 00:34:44;;;;;;;81.07;42.33;;;5.20;55.10;;;;;;5072860;28;20546;-75
2021/04/10 00:37:10;;;;;;;81.10;42.58;;;5.30;55.30;;;;;;5073886;28;20497;-74
2021/04/10 00:39:35;;;;;;;89.93;43.90;;;5.30;55.30;;;;;;5073882;28;20440;-74
2021/04/10 00:42:01;;;;;;;79.75;41.85;;;5.30;55.30;;;;;;5073915;28;20072;-75
2021/04/10 00:44:27;;;;;;;89.72;46.55;;;5.30;55.30;;;;;;5074120;28;20385;-75
2021/04/10 00:46:52;;;;;;;96.15;47.60;;;5.30;55.20;;;;;;5072631;28;20029;-75
2021/04/10 00:49:18;;;;;;;94.55;50.65;;;5.40;55.30;;;;;;5074206;28;20485;-73
2021/04/10 00:51:44;;;;;;;82.10;44.05;;;5.40;55.30;;;;;;5074140;28;20378;-73
2021/04/10 00:54:10;;;;;;;68.68;36.33;;;5.40;55.30;;;;;;5073680;28;20412;-73
2021/04/10 00:56:35;;;;;;;71.40;38.63;;;5.40;55.40;;;;;;5073551;28;20024;-73
2021/04/10 00:59:01;;;;;;;76.35;41.05;;;5.40;55.40;;;;;;5073808;28;20451;-74
2021/04/10 01:01:27;;;;;;;84.75;45.97;;;5.50;55.50;;;;;;5074096;28;20153;-73
2021/04/10 01:03:53;;;;;;;66.85;35.63;;;5.50;55.60;;;;;;5073504;28;20020;-73
2021/04/10 01:06:19;;;;;;;65.45;35.13;;;5.50;55.60;;;;;;5074038;28;20115;-74
2021/04/10 01:08:45;;;;;;;59.40;34.25;;;5.40;55.60;;;;;;5072334;28;20108;-75
2021/04/10 01:11:27;;;;;;;59.15;32.28;;;5.40;55.70;;;;;;5073284;28;20036;-74
2021/04/10 01:13:59;;;;;;;52.05;28.90;;;5.40;55.80;;;;;;5073281;28;20020;-73
2021/04/10 01:16:30;;;;;;;59.08;32.28;;;5.40;55.80;;;;;;5073423;28;20058;-73
2021/04/10 01:19:17;;;;;;;56.35;30.55;;;5.40;55.80;;;;;;5071702;28;20048;-73
2021/04/10 01:22:07;;;;;;;50.15;27.67;;;5.40;55.90;;;;;;5073375;28;20539;-73
2021/04/10 01:24:41;;;;;;;57.65;29.73;;;5.40;55.90;;;;;;5073520;28;20485;-73
2021/04/10 01:27:07;;;;;;;42.67;24.80;;;5.40;55.80;;;;;;5073341;28;20039;-73
2021/04/10 01:29:49;;;;;;;45.70;24.92;;;5.30;55.80;;;;;;5072095;28;20277;-74
2021/04/10 01:32:16;;;;;;;50.40;28.45;;;5.30;56.00;;;;;;5073328;28;20115;-74
2021/04/10 01:35:13;;;;;;;56.50;29.15;;;5.30;55.90;;;;;;5073005;28;20025;-73
2021/04/10 01:38:04;;;;;;;58.42;30.00;;;5.30;56.20;;;;;;5068208;28;20067;-74
2021/04/10 01:40:33;;;;;;;61.35;31.30;;;5.30;56.20;;;;;;5070308;28;20521;-73
2021/04/10 01:43:01;;;;;;;53.47;30.17;;;5.30;56.70;;;;;;5068636;28;20421;-72
2021/04/10 01:45:28;;;;;;;62.42;32.28;;;5.20;56.10;;;;;;5073134;28;20099;-73
2021/04/10 01:48:02;;;;;;;57.92;31.58;;;5.20;56.30;;;;;;5073066;28;20115;-73
2021/04/10 01:50:28;;;;;;;;;;;5.20;56.40;;;;;;5073927;28;20024;-73
2021/04/10 01:52:56;;;;;;;66.15;33.72;;;5.20;56.10;;;;;;5071631;28;19931;-73
2021/04/10 01:55:23;;;;;;;60.90;34.40;;;5.10;56.00;;;;;;5073007;28;20434;-73
2021/04/10 01:57:50;;;;;;;56.15;31.05;;;5.10;56.30;;;;;;5072621;28;20060;-74
2021/04/10 02:00:18;;;;;;;64.53;33.95;;;5.00;56.50;;;;;;5073072;28;20029;-74
2021/04/10 02:02:45;;;;;;;56.90;30.10;;;5.00;57.30;;;;;;5072847;28;20438;-74
2021/04/10 02:05:13;;;;;;;56.63;29.80;;;5.00;56.80;;;;;;5072508;28;20516;-74
2021/04/10 02:07:42;;;;;;;49.50;28.20;;;5.00;56.80;;;;;;5072854;28;20375;-74
2021/04/10 02:10:09;;;;;;;65.38;34.70;;;5.00;56.90;;;;;;5073039;28;20029;-74
2021/04/10 02:12:36;;;;;;;66.85;36.65;;;5.00;56.90;;;;;;5071527;28;20028;-74
2021/04/10 02:15:04;;;;;;;72.80;37.45;;;5.00;56.90;;;;;;5073062;28;20111;-74
2021/04/10 02:17:30;;;;;;;77.93;40.95;;;5.10;57.00;;;;;;5072834;28;20072;-74
2021/04/10 02:19:56;;;;;;;82.70;41.60;;;5.10;57.00;;;;;;5073819;28;20502;-73
2021/04/10 02:22:23;;;;;;;102.60;48.30;;;5.10;56.90;;;;;;5076973;28;20032;-73
2021/04/10 02:24:49;;;;;;;102.78;50.67;;;5.00;56.90;;;;;;5076591;28;20059;-74
2021/04/10 02:27:15;;;;;;;92.70;46.63;;;5.00;56.90;;;;;;5075628;28;20162;-73
2021/04/10 02:29:42;;;;;;;69.35;37.67;;;4.90;56.90;;;;;;5076947;28;20067;-73
2021/04/10 02:32:35;;;;;;;69.25;35.85;;;4.80;57.10;;;;;;5075242;28;20031;-75
2021/04/10 02:35:13;;;;;;;59.45;32.45;;;4.70;57.30;;;;;;5076144;28;20024;-73
2021/04/10 02:37:39;;;;;;;62.55;33.00;;;4.60;57.40;;;;;;5076578;28;20086;-74
2021/04/10 02:40:07;;;;;;;57.80;30.75;;;4.50;57.50;;;;;;5058559;28;20028;-75
2021/04/10 02:42:37;;;;;;;62.83;33.95;;;4.40;57.70;;;;;;5076555;28;20054;-75
2021/04/10 02:45:05;;;;;;;55.65;30.33;;;4.40;57.90;;;;;;5075954;28;20494;-75
2021/04/10 02:47:33;;;;;;;57.50;28.92;;;4.30;58.10;;;;;;5075149;28;20028;-74
2021/04/10 02:50:03;;;;;;;55.80;29.90;;;4.30;58.30;;;;;;5076353;28;20025;-74
2021/04/10 02:52:46;;;;;;;60.92;31.90;;;4.30;58.40;;;;;;5075944;28;20060;-74
2021/04/10 02:55:16;;;;;;;64.80;33.60;;;4.20;58.50;;;;;;5076081;28;20021;-74
2021/04/10 02:57:42;;;;;;;56.80;32.03;;;4.20;58.60;;;;;;5075831;28;20355;-74
2021/04/10 03:00:09;;;;;;;63.10;34.92;;;4.20;58.70;;;;;;5076158;28;20024;-74
2021/04/10 03:02:36;;;;;;;59.15;30.88;;;4.20;58.90;;;;;;5074709;28;20063;-74
2021/04/10 03:05:02;;;;;;;55.67;31.35;;;4.20;58.90;;;;;;5075600;28;20094;-75
2021/04/10 03:07:28;;;;;;;57.10;31.85;;;4.20;59.00;;;;;;5074682;28;20052;-74
2021/04/10 03:09:54;;;;;;;57.92;31.85;;;4.20;59.10;;;;;;5075851;28;20411;-75
2021/04/10 03:12:23;;;;;;;59.78;32.45;;;4.20;59.10;;;;;;5075803;28;20033;-74
2021/04/10 03:14:50;;;;;;;57.83;33.40;;;4.20;59.20;;;;;;5075782;28;20087;-75
2021/04/10 03:17:18;;;;;;;60.45;30.70;;;4.10;59.20;;;;;;5075814;28;20039;-73
2021/04/10 03:19:45;;;;;;;55.88;30.85;;;4.20;59.40;;;;;;5076209;28;20147;-74
2021/04/10 03:22:13;;;;;;;59.92;31.48;;;4.20;59.30;;;;;;5075325;28;20025;-75
2021/04/10 03:24:39;;;;;;;55.17;29.00;;;4.20;59.30;;;;;;5075787;28;20048;-75
2021/04/10 03:27:06;;;;;;;61.50;32.58;;;4.20;59.30;;;;;;5075491;28;20073;-75
2021/04/10 03:29:33;;;;;;;60.38;32.22;;;4.20;59.30;;;;;;5075387;28;20025;-73
2021/04/10 03:31:59;;;;;;;54.90;29.33;;;4.30;59.40;;;;;;5075165;28;20060;-74
2021/04/10 03:34:26;;;;;;;56.03;30.33;;;4.30;59.40;;;;;;5075511;28;20330;-74
2021/04/10 03:36:55;;;;;;;43.95;25.73;;;4.30;59.40;;;;;;5074092;28;20040;-74
2021/04/10 03:39:22;;;;;;;49.75;27.63;;;4.40;59.40;;;;;;5075478;28;20032;-74
2021/04/10 03:41:48;;;;;;;52.05;28.80;;;4.40;59.20;;;;;;5075566;28;20020;-74
2021/04/10 03:44:14;;;;;;;52.55;30.23;;;4.50;59.10;;;;;;5075519;28;20039;-73
2021/04/10 03:46:39;;;;;;;66.85;32.95;;;4.60;59.00;;;;;;5075311;28;20021;-73
2021/04/10 03:49:06;;;;;;;59.72;33.40;;;4.80;58.90;;;;;;5075160;28;20395;-75
2021/04/10 03:51:35;;;;;;;56.38;33.83;;;4.90;58.70;;;;;;5075231;28;20493;-73
2021/04/10 03:54:02;;;;;;;64.38;34.00;;;4.90;59.00;;;;;;5074952;28;20120;-74
2021/04/10 03:56:28;;;;;;;67.72;34.03;;;5.00;58.30;;;;;;5075264;28;20025;-74
2021/04/10 03:58:54;;;;;;;55.85;30.75;;;5.10;58.10;;;;;;5074967;28;20463;-74
2021/04/10 04:01:19;;;;;;;65.22;35.95;;;5.30;57.90;;;;;;5073656;28;20032;-74
2021/04/10 04:03:45;;;;;;;65.70;36.45;;;5.30;57.60;;;;;;5074832;28;20063;-74
2021/04/10 04:06:11;;;;;;;91.72;50.72;;;5.40;57.40;;;;;;5074466;28;20064;-74
2021/04/10 04:08:37;;;;;;;82.88;49.38;;;5.50;57.30;;;;;;5074868;28;20455;-74
2021/04/10 04:11:02;;;;;;;82.30;47.17;;;5.50;57.20;;;;;;5074358;28;20031;-74
2021/04/10 04:13:28;;;;;;;104.63;58.33;;;5.60;57.10;;;;;;5074453;28;20021;-74
2021/04/10 04:15:54;;;;;;;113.70;62.08;;;5.70;56.90;;;;;;5074749;28;20032;-74
2021/04/10 04:18:20;;;;;;;114.03;62.83;;;5.70;56.60;;;;;;5074264;28;20490;-75
2021/04/10 04:20:45;;;;;;;108.88;62.17;;;5.70;56.60;;;;;;5074423;28;20033;-73
2021/04/10 04:23:11;;;;;;;107.07;60.90;;;5.70;56.60;;;;;;5073813;28;20025;-74
2021/04/10 04:25:37;;;;;;;111.38;63.92;;;5.80;56.60;;;;;;5074514;28;20025;-73
2021/04/10 04:28:03;;;;;;;103.10;56.50;;;5.80;56.60;;;;;;5074355;28;20032;-73
2021/04/10 04:30:28;;;;;;;81.35;45.95;;;5.80;56.50;;;;;;5074386;28;20548;-74
2021/04/10 04:32:54;;;;;;;80.72;44.47;;;5.90;56.40;;;;;;5073024;28;20371;-75
2021/04/10 04:35:20;;;;;;;87.20;48.55;;;5.80;56.30;;;;;;5074240;28;20558;-73
2021/04/10 04:37:46;;;;;;;81.15;45.63;;;5.80;56.20;;;;;;5074072;28;20067;-75
2021/04/10 04:40:13;;;;;;;70.63;38.83;;;5.80;56.30;;;;;;5074124;28;20055;-74
2021/04/10 04:42:39;;;;;;;73.47;38.55;;;5.80;56.30;;;;;;5073576;28;20107;-74
2021/04/10 04:45:06;;;;;;;57.67;31.75;;;5.90;56.40;;;;;;5072599;28;20071;-75
2021/04/10 04:47:32;;;;;;;58.28;34.45;;;5.90;56.30;;;;;;5074097;28;20028;-75
2021/04/10 04:49:58;;;;;;;65.68;34.45;;;6.00;56.30;;;;;;5073480;28;20043;-76
2021/04/10 04:52:23;;;;;;;66.70;37.75;;;6.00;56.20;;;;;;5074006;28;20048;-74
2021/04/10 04:54:49;;;;;;;62.95;36.63;;;6.10;56.20;;;;;;5073943;28;20433;-74
2021/04/10 04:57:15;;;;;;;62.05;32.95;;;6.20;56.20;;;;;;5073685;28;20028;-75
2021/04/10 04:59:41;;;;;;;60.33;30.33;;;6.30;56.00;;;;;;5073598;28;20028;-76
2021/04/10 05:02:06;;;;;;;58.90;33.40;;;6.40;55.90;;;;;;5073527;28;20099;-75
2021/04/10 05:04:32;;;;;;;53.60;30.83;;;6.50;55.60;;;;;;5073706;28;20063;-74
2021/04/10 05:06:58;;;;;;;58.70;32.97;;;6.60;55.60;;;;;;5074001;28;20458;-74
2021/04/10 05:09:23;;;;;;;61.25;32.22;;;6.60;55.50;;;;;;5073314;28;20040;-74
2021/04/10 05:11:50;;;;;;;53.42;32.42;;;6.70;55.50;;;;;;5073099;28;20056;-74
2021/04/10 05:14:16;;;;;;;63.33;35.10;;;6.80;55.40;;;;;;5073266;28;20093;-74
2021/04/10 05:16:42;;;;;;;58.83;34.60;;;6.90;55.30;;;;;;5073100;28;20428;-75
2021/04/10 05:19:07;;;;;;;62.13;33.65;;;7.00;55.20;;;;;;5072050;28;20053;-74
2021/04/10 05:21:33;;;;;;;61.13;34.08;;;7.20;55.10;;;;;;5073403;28;20377;-74
2021/04/10 05:23:59;;;;;;;56.22;32.60;;;7.30;54.90;;;;;;5073361;28;20370;-75
2021/04/10 05:26:25;;;;;;;57.83;34.40;;;7.40;54.70;;;;;;5073606;28;20031;-74
2021/04/10 05:28:50;;;;;;;62.17;35.70;;;7.60;54.60;;;;;;5073277;28;20025;-75
2021/04/10 05:31:16;;;;;;;63.08;34.65;;;7.70;54.30;;;;;;5071574;28;20020;-75
2021/04/10 05:33:45;;;;;;;69.50;37.90;;;7.80;54.30;;;;;;5073121;28;20031;-75
2021/04/10 05:36:11;;;;;;;76.03;39.53;;;7.90;53.90;;;;;;5072685;28;20425;-74
2021/04/10 05:38:37;;;;;;;75.90;41.20;;;8.10;53.70;;;;;;5071949;28;20117;-75
2021/04/10 05:41:03;;;;;;;77.07;41.40;;;8.20;53.60;;;;;;5072876;28;20146;-76
2021/04/10 05:43:29;;;;;;;71.38;38.95;;;8.30;53.30;;;;;;5072922;28;20032;-75
2021/04/10 05:45:54;;;;;;;65.60;37.53;;;8.40;53.00;;;;;;5073008;28;20059;-75
2021/04/10 05:48:20;;;;;;;48.33;27.58;;;8.60;52.70;;;;;;5072745;28;20067;-76
2021/04/10 05:50:46;;;;;;;47.88;27.95;;;8.70;52.10;;;;;;5073168;28;20021;-76
2021/04/10 05:53:11;;;;;;;50.00;30.25;;;8.90;51.70;;;;;;5072541;28;20024;-75
2021/04/10 05:55:37;;;;;;;49.80;30.77;;;9.00;51.40;;;;;;5072344;28;20493;-74
2021/04/10 05:58:03;;;;;;;60.70;33.58;;;9.10;51.10;;;;;;5072491;28;20043;-76
2021/04/10 06:00:29;;;;;;;55.70;32.85;;;9.30;51.00;;;;;;5072585;28;20054;-75
2021/04/10 06:02:55;;;;;;;54.45;32.22;;;9.30;50.80;;;;;;5072343;28;20082;-73
2021/04/10 06:05:22;;;;;;;48.00;28.98;;;9.50;50.70;;;;;;5071992;28;20043;-75
2021/04/10 06:07:48;;;;;;;50.28;27.17;;;9.60;50.30;;;;;;5072580;28;20036;-74
2021/04/10 06:10:18;;;;;;;50.70;26.75;;;9.80;49.80;;;;;;5073080;28;20119;-74
2021/04/10 06:12:44;;;;;;;46.17;25.67;;;9.90;49.30;;;;;;5071632;28;20090;-75
2021/04/10 06:15:12;;;;;;;46.03;26.15;;;10.00;49.00;;;;;;5072614;28;20033;-76
2021/04/10 06:17:39;;;;;;;52.05;26.80;;;10.10;48.40;;;;;;5072954;28;20153;-77
2021/04/10 06:20:06;;;;;;;50.88;26.73;;;10.30;48.00;;;;;;5073008;28;20480;-76
2021/04/10 06:22:32;;;;;;;45.13;27.08;;;10.40;47.50;;;;;;5071425;28;20033;-73
2021/04/10 06:24:58;;;;;;;57.40;26.80;;;10.50;47.30;;;;;;5072370;28;20181;-74
2021/04/10 06:27:24;;;;;;;50.72;29.60;;;10.60;47.00;;;;;;5072290;28;20064;-75
2021/04/10 06:29:50;;;;;;;51.17;29.35;;;10.70;46.80;;;;;;5072401;28;20396;-75
2021/04/10 06:32:15;;;;;;;49.10;28.70;;;10.80;46.50;;;;;;5072248;28;20025;-76
2021/04/10 06:34:41;;;;;;;53.53;26.80;;;10.90;46.20;;;;;;5072726;28;20478;-77
2021/04/10 06:37:07;;;;;;;48.70;26.55;;;10.90;45.70;;;;;;5071760;28;20568;-78
2021/04/10 06:39:33;;;;;;;58.35;29.83;;;11.00;45.50;;;;;;5071021;28;20020;-77
2021/04/10 06:42:00;;;;;;;50.25;28.00;;;11.10;45.40;;;;;;5071938;28;20033;-78
2021/04/10 06:44:26;;;;;;;50.63;27.23;;;11.20;45.10;;;;;;5072453;28;20378;-78
2021/04/10 06:46:56;;;;;;;47.58;25.02;;;11.30;44.90;;;;;;5072605;28;20032;-77
2021/04/10 06:49:24;;;;;;;42.47;24.35;;;11.40;44.50;;;;;;5072351;28;20021;-77
2021/04/10 06:51:51;;;;;;;48.95;24.15;;;11.50;44.20;;;;;;5072669;28;20017;-76
2021/04/10 06:54:20;;;;;;;38.00;21.05;;;11.60;44.00;;;;;;5072201;28;20021;-77
2021/04/10 06:57:02;;;;;;;42.90;22.60;;;11.70;43.70;;;;;;5072158;28;20059;-76
2021/04/10 06:59:51;;;;;;;42.00;21.15;;;11.70;43.30;;;;;;5072416;28;20043;-77
2021/04/10 07:02:17;;;;;;;55.60;27.23;;;11.80;42.90;;;;;;5072150;28;20070;-77
2021/04/10 07:04:43;;;;;;;51.17;25.45;;;11.80;43.50;;;;;;5072209;28;20436;-77
2021/04/10 07:07:10;;;;;;;45.15;26.58;;;11.90;43.20;;;;;;5075538;28;20120;-77
2021/04/10 07:09:37;;;;;;;36.38;22.23;;;11.90;43.20;;;;;;5075955;28;20024;-77
2021/04/10 07:12:08;;;;;;;42.17;23.60;;;12.00;43.00;;;;;;5076017;28;20028;-76
2021/04/10 07:14:35;;;;;;;63.10;25.75;;;12.10;42.80;;;;;;5075657;28;20107;-77
2021/04/10 07:17:01;;;;;;;61.50;27.42;;;12.10;42.60;;;;;;5075365;28;20048;-76
2021/04/10 07:19:28;;;;;;;68.93;28.38;;;12.20;42.40;;;;;;5075587;28;20052;-76
2021/04/10 07:22:20;;;;;;;61.05;28.58;;;12.30;42.20;;;;;;5075315;28;20467;-77
2021/04/10 07:24:50;;;;;;;49.42;25.17;;;12.40;42.00;;;;;;5073178;28;20083;-76
2021/04/10 07:27:22;;;;;;;57.55;26.90;;;12.40;41.80;;;;;;5075371;28;20482;-75
2021/04/10 07:29:51;;;;;;;63.42;27.08;;;12.50;41.70;;;;;;5075458;28;20029;-75
2021/04/10 07:32:36;;;;;;;49.03;23.55;;;12.60;41.70;;;;;;5075497;28;20040;-75
2021/04/10 07:35:17;;;;;;;49.28;21.88;;;12.70;41.30;;;;;;5075510;28;20031;-76
2021/04/10 07:37:46;;;;;;;39.50;23.10;;;12.80;41.30;;;;;;5075198;28;20043;-75
2021/04/10 07:40:22;;;;;;;36.63;19.42;;;12.90;41.20;;;;;;5075244;28;20119;-78
2021/04/10 07:42:48;;;;;;;40.95;23.13;;;13.10;40.70;;;;;;5074974;28;20028;-76
2021/04/10 07:45:29;;;;;;;48.25;24.58;;;13.40;40.60;;;;;;5074945;28;20332;-76
2021/04/10 07:48:14;;;;;;;44.15;26.65;;;13.60;40.20;;;;;;5075120;28;20107;-75
2021/04/10 07:50:41;;;;;;;48.78;27.23;;;13.90;40.30;;;;;;5075161;28;20060;-76
2021/04/10 07:53:21;;;;;;;37.13;20.75;;;14.10;40.30;;;;;;5074847;28;20032;-77
2021/04/10 07:55:48;;;;;;;39.78;21.98;;;14.10;39.30;;;;;;5075217;28;20031;-76
2021/04/10 07:58:29;;;;;;;60.00;27.90;;;14.30;39.00;;;;;;5074877;28;20032;-77
2021/04/10 08:01:00;;;;;;;51.15;27.50;;;14.50;38.80;;;;;;5074969;28;20024;-76
2021/04/10 08:03:31;;;;;;;36.00;21.60;;;14.50;39.30;;;;;;5074773;28;20020;-77
2021/04/10 08:06:19;;;;;;;40.38;21.10;;;14.60;38.80;;;;;;5075130;28;20344;-76
2021/04/10 08:08:57;;;;;;;34.90;18.48;;;14.70;38.40;;;;;;5074795;28;20032;-78
2021/04/10 08:11:40;;;;;;;58.50;28.33;;;14.80;37.50;;;;;;5074541;28;20502;-76
2021/04/10 08:14:10;;;;;;;51.50;28.55;;;15.00;38.40;;;;;;5074616;28;20425;-76
2021/04/10 08:16:43;;;;;;;63.83;29.73;;;15.40;38.50;;;;;;5073942;28;20405;-76
2021/04/10 08:19:09;;;;;;;54.08;29.75;;;15.40;38.40;;;;;;5074154;28;20159;-76
2021/04/10 08:21:34;;;;;;;50.05;30.55;;;15.30;38.70;;;;;;5073869;28;20052;-76
2021/04/10 08:24:03;;;;;;;45.83;30.10;;;15.20;39.10;;;;;;5074007;28;20074;-76
2021/04/10 08:26:29;;;;;;;47.80;30.95;;;15.30;39.60;;;;;;5072892;28;20032;-76
2021/04/10 08:28:55;;;;;;;75.90;33.85;;;15.60;39.70;;;;;;5072984;28;20070;-76
2021/04/10 08:31:21;;;;;;;50.33;32.00;;;16.00;39.60;;;;;;5074082;28;20040;-76
2021/04/10 08:33:47;;;;;;;58.83;33.88;;;16.50;39.20;;;;;;5073805;28;20539;-75
2021/04/10 08:36:17;;;;;;;54.53;33.45;;;17.10;38.90;;;;;;5074087;28;20028;-81
2021/04/10 08:38:43;;;;;;;59.08;35.63;;;17.50;38.50;;;;;;5073862;28;20028;-76
2021/04/10 08:41:12;;;;;;;61.95;36.78;;;17.60;38.20;;;;;;5073802;28;20032;-76
2021/04/10 08:43:48;;;;;;;57.85;36.92;;;18.00;38.80;;;;;;5073558;28;20099;-75
2021/04/10 08:46:18;;;;;;;47.70;30.98;;;18.80;38.60;;;;;;5073853;28;20056;-77
2021/04/10 08:48:45;;;;;;;48.58;29.85;;;19.90;37.90;;;;;;5073609;28;20029;-75
2021/04/10 08:51:15;;;;;;;49.60;27.52;;;21.00;36.80;;;;;;5072408;28;20136;-76
2021/04/10 08:53:46;;;;;;;44.50;26.33;;;21.80;35.30;;;;;;5073486;28;20099;-76
2021/04/10 08:56:17;;;;;;;43.67;26.77;;;22.50;34.10;;;;;;5073696;28;20032;-75
2021/04/10 08:58:43;;;;;;;37.92;26.17;;;23.00;33.60;;;;;;5073780;28;20064;-77
2021/04/10 09:01:20;;;;;;;37.88;25.17;;;23.40;33.00;;;;;;5072331;28;20093;-78
2021/04/10 09:03:46;;;;;;;37.38;23.55;;;23.70;32.10;;;;;;5072885;28;20466;-78
2021/04/10 09:06:30;;;;;;;33.92;26.08;;;23.50;31.60;;;;;;5072157;28;20028;-79
2021/04/10 09:09:11;;;;;;;;;;;22.80;31.70;;;;;;5071452;28;20028;-76
2021/04/10 09:11:38;;;;;;;32.40;19.75;;;23.00;33.10;;;;;;5069653;28;19904;-77
2021/04/10 09:14:04;;;;;;;32.60;17.90;;;23.90;31.90;;;;;;5072142;28;20021;-77
2021/04/10 09:16:40;;;;;;;32.38;20.63;;;24.60;30.70;;;;;;5071801;28;20082;-78
2021/04/10 09:19:19;;;;;;;33.75;24.55;;;24.60;30.10;;;;;;5070499;28;20048;-78
2021/04/10 09:21:49;;;;;;;39.00;21.38;;;24.40;30.50;;;;;;5070463;28;20162;-78
2021/04/10 09:24:20;;;;;;;29.80;20.65;;;24.50;30.50;;;;;;5072044;28;20025;-79
2021/04/10 09:26:55;;;;;;;37.03;21.42;;;24.80;30.30;;;;;;5072076;28;20474;-77
2021/04/10 09:29:21;;;;;;;30.33;19.15;;;25.40;30.00;;;;;;5068386;28;20501;-78
2021/04/10 09:31:51;;;;;;;25.63;16.63;;;26.10;29.90;;;;;;5072369;28;20043;-77
2021/04/10 09:34:52;;;;;;;27.90;15.82;;;26.80;29.60;;;;;;5072274;28;20027;-78
2021/04/10 09:37:21;;;;;;;17.85;13.57;;;27.60;28.70;;;;;;5067809;28;20435;-77
2021/04/10 09:39:56;;;;;;;28.05;13.10;;;28.30;28.20;;;;;;5072040;28;20032;-79
2021/04/10 09:42:34;;;;;;;25.27;13.82;;;28.50;27.30;;;;;;5069425;28;20470;-78
2021/04/10 09:45:12;;;;;;;14.82;12.52;;;28.80;27.20;;;;;;5069431;28;20020;-77
2021/04/10 09:48:02;;;;;;;30.50;12.55;;;29.30;26.80;;;;;;5069075;28;20032;-77
2021/04/10 09:50:29;;;;;;;27.10;11.50;;;29.40;26.30;;;;;;5070505;28;20020;-77
2021/04/10 09:53:00;;;;;;;12.40;9.38;;;29.60;26.30;;;;;;5071356;28;20024;-77
2021/04/10 09:55:27;;;;;;;12.90;10.20;;;29.80;26.00;;;;;;5071359;28;20024;-77
2021/04/10 09:58:03;;;;;;;20.92;10.82;;;30.00;25.80;;;;;;5071591;28;20025;-80
2021/04/10 10:00:31;;;;;;;15.30;9.30;;;30.20;25.40;;;;;;5071903;28;20074;-78
2021/04/10 10:02:58;;;;;;;17.83;9.75;;;30.70;25.50;;;;;;5071471;28;20016;-78
2021/04/10 10:05:29;;;;;;;13.73;10.07;;;31.10;25.30;;;;;;5071648;28;20033;-78
2021/04/10 10:08:07;;;;;;;22.33;10.05;;;31.50;25.10;;;;;;5071758;28;20033;-78
2021/04/10 10:10:45;;;;;;;11.32;9.05;;;31.60;24.80;;;;;;5071455;28;20028;-80
2021/04/10 10:13:16;;;;;;;18.05;9.32;;;31.90;24.70;;;;;;5071690;28;20024;-79
2021/04/10 10:15:44;;;;;;;26.75;9.23;;;32.20;24.50;;;;;;5071482;28;20035;-76
2021/04/10 10:18:30;;;;;;;21.55;8.38;;;32.30;24.40;;;;;;5071740;28;20043;-78
2021/04/10 10:20:59;;;;;;;9.48;7.65;;;32.40;24.00;;;;;;5071576;28;20039;-77
2021/04/10 10:23:27;;;;;;;8.75;7.43;;;32.50;23.90;;;;;;5071440;28;20094;-78
2021/04/10 10:26:02;;;;;;;10.35;7.88;;;32.40;24.00;;;;;;5071547;28;20955;-78
2021/04/10 10:28:28;;;;;;;12.73;7.68;;;32.50;23.70;;;;;;5069857;28;20037;-77
2021/04/10 10:30:54;;;;;;;9.15;8.15;;;32.90;23.70;;;;;;5071505;28;20515;-78
2021/04/10 10:33:21;;;;;;;15.73;9.82;;;33.30;23.70;;;;;;5071502;28;20566;-78
2021/04/10 10:35:52;;;;;;;9.57;8.63;;;33.40;23.60;;;;;;5072044;28;20064;-77
2021/04/10 10:38:18;;;;;;;9.80;6.90;;;33.40;23.40;;;;;;5072496;28;20029;-77
2021/04/10 10:40:48;;;;;;;17.20;7.07;;;33.50;23.40;;;;;;5073143;28;20051;-78
2021/04/10 10:43:15;;;;;;;19.42;7.13;;;33.80;23.10;;;;;;5075757;28;20020;-79
2021/04/10 10:46:02;;;;;;;18.30;6.60;;;34.00;23.00;;;;;;5076276;28;20024;-78
2021/04/10 10:48:39;;;;;;;21.08;7.60;;;34.10;22.70;;;;;;5075014;28;20090;-78
2021/04/10 10:51:11;;;;;;;26.05;7.85;;;34.20;22.70;;;;;;5076625;28;20079;-79
2021/04/10 10:53:40;;;;;;;29.80;8.38;;;34.30;22.60;;;;;;5072504;28;20166;-78
2021/04/10 10:56:13;;;;;;;23.23;7.60;;;34.40;22.50;;;;;;5074817;28;20029;-78
2021/04/10 10:58:45;;;;;;;;;;;34.40;22.40;;;;;;5075694;28;20469;-78
2021/04/10 11:01:25;;;;;;;7.43;6.65;;;34.60;23.10;;;;;;5075004;28;19908;-78
2021/04/10 11:04:18;;;;;;;8.38;6.57;;;34.80;22.60;;;;;;5073825;28;20103;-77
2021/04/10 11:06:46;;;;;;;19.02;6.22;;;34.90;22.50;;;;;;5072757;28;20441;-78
2021/04/10 11:09:36;;;;;;;9.45;6.78;;;35.00;22.20;;;;;;5075063;28;20020;-78
2021/04/10 11:12:06;;;;;;;13.05;5.90;;;35.20;22.10;;;;;;5074050;28;20041;-79
2021/04/10 11:14:40;;;;;;;7.72;5.22;;;35.40;22.00;;;;;;5073593;28;20036;-79
2021/04/10 11:17:06;;;;;;;14.77;5.82;;;35.50;21.80;;;;;;5072422;28;20036;-77
2021/04/10 11:19:36;;;;;;;12.68;5.28;;;35.50;21.80;;;;;;5074679;28;20070;-78
2021/04/10 11:22:08;;;;;;;10.20;5.40;;;35.60;21.60;;;;;;5071779;28;20462;-78
2021/04/10 11:24:51;;;;;;;7.47;4.63;;;35.60;21.50;;;;;;5074633;28;20040;-79
2021/04/10 11:27:21;;;;;;;;;;;35.50;21.40;;;;;;5072939;28;20032;-78
2021/04/10 11:29:53;;;;;;;64.97;7.30;;;35.70;22.20;;;;;;5074429;28;19904;-78
2021/04/10 11:32:18;;;;;;;6.07;4.80;;;35.90;21.40;;;;;;5074443;28;20025;-80
2021/04/10 11:34:47;;;;;;;9.15;4.38;;;35.90;21.30;;;;;;5074476;28;20078;-78
2021/04/10 11:37:18;;;;;;;5.47;4.93;;;35.80;21.20;;;;;;5074334;28;20059;-78
2021/04/10 11:40:02;;;;;;;6.70;5.72;;;35.50;21.20;;;;;;5071532;28;20478;-77
2021/04/10 11:42:32;;;;;;;13.05;5.68;;;35.60;21.30;;;;;;5071800;28;20470;-78
2021/04/10 11:44:59;;;;;;;7.10;5.25;;;35.80;21.10;;;;;;5073796;28;20048;-79
2021/04/10 11:47:30;;;;;;;6.82;5.53;;;36.10;21.10;;;;;;5073923;28;20071;-79
2021/04/10 11:50:22;;;;;;;21.58;6.38;;;36.20;21.00;;;;;;5073927;28;20107;-79
2021/04/10 11:52:49;;;;;;;7.35;5.30;;;36.20;21.00;;;;;;5072400;28;20440;-77
2021/04/10 11:55:19;;;;;;;19.73;6.35;;;36.30;21.10;;;;;;5075397;28;20020;-77
2021/04/10 11:57:56;;;;;;;7.72;5.85;;;36.40;21.00;;;;;;5075239;28;20086;-78
2021/04/10 12:00:27;;;;;;;13.02;6.30;;;36.60;21.00;;;;;;5074716;28;20044;-79
2021/04/10 12:03:03;;;;;;;9.02;5.60;;;36.60;21.10;;;;;;5074851;28;20031;-77
2021/04/10 12:05:34;;;;;;;6.93;4.78;;;36.70;21.10;;;;;;5074845;28;20442;-78
2021/04/10 12:08:13;;;;;;;5.72;5.22;;;36.80;21.00;;;;;;5074872;28;20536;-78
2021/04/10 12:10:47;;;;;;;14.63;5.85;;;36.90;20.90;;;;;;5074188;28;20033;-77
2021/04/10 12:13:13;;;;;;;9.73;5.82;;;36.80;20.90;;;;;;5074716;28;20086;-79
2021/04/10 12:15:40;;;;;;;12.48;5.68;;;36.90;21.00;;;;;;5074551;28;20036;-78
2021/04/10 12:18:08;;;;;;;8.45;5.75;;;36.90;21.00;;;;;;5074312;28;20062;-78
2021/04/10 12:20:35;;;;;;;10.60;6.30;;;37.10;20.90;;;;;;5074364;28;20425;-80
2021/04/10 12:23:01;;;;;;;7.70;6.15;;;37.00;20.90;;;;;;5074515;28;20039;-79
2021/04/10 12:25:27;;;;;;;8.13;6.50;;;36.90;20.90;;;;;;5074434;28;20402;-78
2021/04/10 12:27:52;;;;;;;10.27;7.32;;;37.00;21.00;;;;;;5074237;28;20107;-78
2021/04/10 12:30:18;;;;;;;14.70;7.38;;;37.00;21.00;;;;;;5074380;28;20086;-77
2021/04/10 12:32:44;;;;;;;12.57;7.90;;;37.10;21.10;;;;;;5073310;28;20032;-78
2021/04/10 12:35:11;;;;;;;7.93;6.53;;;37.10;21.10;;;;;;5074144;28;20386;-81
2021/04/10 12:37:37;;;;;;;8.82;6.95;;;37.30;21.20;;;;;;5070050;28;20085;-78
2021/04/10 12:40:05;;;;;;;22.92;8.38;;;37.30;21.20;;;;;;5073431;28;20029;-76
2021/04/10 12:42:32;;;;;;;9.50;7.55;;;37.20;21.10;;;;;;5074049;28;20021;-75
2021/04/10 12:44:57;;;;;;;10.88;6.80;;;37.30;21.10;;;;;;5074048;28;20016;-75
2021/04/10 12:47:23;;;;;;;8.20;6.80;;;37.20;21.10;;;;;;5073015;28;20501;-74